Garden City, KS (67846)

11:07 AM CDT on March 31, 2015 (GMT -0500)
N0KQX | | Change Station
CLOSE
Current Station
Personal Weather Station
Location: Garden City, KS
Elevation: 2839 ft
Nearby Weather Stations

Elev 2839 ft 37.97 °N, 100.85 °W | Updated 6 seconds ago

Clear
Clear
68.5 °F
Feels Like 68.5 °F
N
4.0
Wind Variable Wind from ENE
Gusts 4.0 mph

Today
High -- | Low -- °F
--% Chance of Precip.
Yesterday
High -- | Low -- °F
Precip. -- in
7:30 AM 8:05 PM
Waxing Gibbous, 87% visible
Pressure 29.99 in
Visibility 10.0 miles
Clouds Clear
Dew Point 40 °F
Humidity 36%
Rainfall 0.00 in
Snow Depth Not available.
UV 5 out of 12
Pollen 9.90 out of 12
Air Quality Not available.
Flu Activity Not available.
METAR KGCK 311554Z 10009KT 10SM CLR 19/00 A3004 RMK AO2 SLP153 T01890000

More Conditions Fewer Conditions

Pressure 29.99 in
Visibility 10.0 miles
Clouds Clear
Dew Point 40 °F
Humidity 36%
Rainfall 0.00 in
Snow Depth Not available.
UV 5 out of 12
Pollen 9.90 out of 12
Air Quality Not available.
Flu Activity Not available.
METAR KGCK 311554Z 10009KT 10SM CLR 19/00 A3004 RMK AO2 SLP153 T01890000

More Conditions Fewer Conditions

10-Day Weather Forecast

Almanac

Astronomy

Mar. 31, 2015 Rise Set
Actual Time
Civil Twilight
Nautical Twilight
Astronomical Twilight
Moon
Length of Visible Light
Length of Day
Tomorrow will be .
, % of the Moon is Illuminated

Today's Extremes

State Highs State Lows

Community

WunderPhotos

Upload Photos

1,809,785 photos uploaded!

WunderBlogs® & News

Nearby

Air Quality

  Air Quality AQ Index Pollutant
Not available.

Snow Depth

Station Depth Elevation

Earthquake Activity

City Distance Mag. Time & Date
Minimum magnitude displayed is 2.5.

Coastal Water Temperatures

Place Temperature

Stations

Nearby Weather Stations

Station Location Temp. Windchill Dew Point Humidity Wind Precip. Elev Updated Type